createdAt,value
2019-01-05T00:00:46.737Z,16.27
2019-01-05T00:03:21.733Z,15.23
2019-01-05T00:06:10.074Z,22.37
2019-01-05T00:08:58.258Z,16.43
2019-01-05T00:11:33.229Z,18.60
2019-01-05T00:14:08.542Z,16.60
2019-01-05T00:16:44.128Z,14.30
2019-01-05T00:19:29.134Z,14.40
2019-01-05T00:22:14.683Z,17.73
2019-01-05T00:25:03.229Z,18.30
2019-01-05T00:27:41.817Z,17.73
2019-01-05T00:30:16.544Z,14.93
2019-01-05T00:33:06.642Z,15.63
2019-01-05T00:35:41.725Z,19.27
2019-01-05T00:38:15.200Z,12.10
2019-01-05T00:41:03.105Z,14.90
2019-01-05T00:43:50.585Z,14.07
2019-01-05T00:46:28.839Z,13.03
2019-01-05T00:49:20.231Z,11.00
2019-01-05T00:52:13.178Z,13.10
2019-01-05T00:54:52.166Z,13.23
2019-01-05T00:57:29.046Z,11.23
2019-01-05T01:00:02.626Z,12.60
2019-01-05T01:02:43.883Z,11.47
2019-01-05T01:05:28.089Z,13.67
2019-01-05T01:08:02.902Z,10.17
2019-01-05T01:10:50.951Z,21.00
2019-01-05T01:13:29.597Z,9.97
2019-01-05T01:16:10.940Z,10.13
2019-01-05T01:18:43.161Z,12.93
2019-01-05T01:21:24.443Z,11.50
2019-01-05T01:24:14.109Z,15.97
2019-01-05T01:27:01.456Z,13.20
2019-01-05T01:29:39.201Z,18.90
2019-01-05T01:32:17.572Z,13.93
2019-01-05T01:35:01.600Z,12.67
2019-01-05T01:38:23.033Z,15.03
2019-01-05T01:41:11.764Z,17.20
2019-01-05T01:43:56.409Z,15.13
2019-01-05T01:46:45.616Z,14.73
2019-01-05T01:49:37.161Z,15.67
2019-01-05T01:52:10.300Z,22.60
2019-01-05T01:54:58.436Z,17.10
2019-01-05T01:57:46.866Z,17.70
2019-01-05T02:00:28.255Z,10.47
2019-01-05T02:03:16.386Z,22.53
2019-01-05T02:06:05.839Z,13.80
2019-01-05T02:08:59.104Z,20.70
2019-01-05T02:11:50.392Z,20.77
2019-01-05T02:14:30.983Z,13.23
2019-01-05T02:17:11.759Z,23.47
2019-01-05T02:19:52.203Z,20.23
2019-01-05T02:23:00.920Z,17.50
2019-01-05T02:25:53.552Z,24.37
2019-01-05T02:28:50.970Z,18.10
2019-01-05T02:31:37.726Z,14.90
2019-01-05T02:34:30.962Z,24.97
2019-01-05T02:37:17.531Z,23.43
2019-01-05T02:40:22.653Z,19.77
2019-01-05T02:43:12.965Z,20.27
2019-01-05T02:46:23.935Z,20.90
2019-01-05T02:49:19.876Z,17.17
2019-01-05T02:52:22.113Z,21.57
2019-01-05T02:55:05.448Z,17.83
2019-01-05T02:57:40.215Z,16.00
2019-01-05T03:00:39.586Z,15.27
2019-01-05T03:03:47.717Z,16.23
2019-01-05T03:06:54.645Z,19.20
2019-01-05T03:09:47.190Z,10.63
2019-01-05T03:13:04.690Z,13.60
2019-01-05T03:15:51.767Z,8.20
2019-01-05T03:18:51.184Z,9.43
2019-01-05T03:21:59.386Z,8.53
2019-01-05T03:24:45.968Z,16.63
2019-01-05T03:27:51.209Z,8.63
2019-01-05T03:30:37.984Z,15.47
2019-01-05T03:33:27.642Z,11.57
2019-01-05T03:36:12.246Z,13.60
2019-01-05T03:39:23.935Z,9.70
2019-01-05T03:42:29.514Z,8.77
2019-01-05T03:45:38.962Z,10.67
2019-01-05T03:48:40.938Z,7.10
2019-01-05T03:51:37.764Z,5.23
2019-01-05T03:54:30.447Z,16.43
2019-01-05T03:57:27.932Z,12.67
2019-01-05T04:00:30.256Z,7.33
2019-01-05T04:03:42.389Z,10.00
2019-01-05T04:06:25.915Z,9.23
2019-01-05T04:09:30.094Z,10.53
2019-01-05T04:12:13.678Z,7.70
2019-01-05T04:15:04.876Z,8.23
2019-01-05T04:18:13.013Z,6.90
2019-01-05T04:21:08.687Z,11.90
2019-01-05T04:24:17.950Z,11.40
2019-01-05T04:27:13.622Z,12.80
2019-01-05T04:30:12.190Z,10.13
2019-01-05T04:32:59.074Z,12.50
2019-01-05T04:36:00.148Z,7.17
2019-01-05T04:38:50.523Z,11.93
2019-01-05T04:41:49.037Z,13.40
2019-01-05T04:44:57.321Z,15.63
2019-01-05T04:47:41.036Z,11.07
2019-01-05T04:50:19.183Z,16.73
2019-01-05T04:53:06.449Z,15.97
2019-01-05T04:56:10.164Z,15.60
2019-01-05T04:59:21.045Z,12.37
2019-01-05T05:02:29.729Z,12.57
2019-01-05T05:05:07.416Z,11.13
2019-01-05T05:07:45.240Z,15.47
2019-01-05T05:10:58.500Z,14.10
2019-01-05T05:13:42.277Z,13.87
2019-01-05T05:16:40.876Z,15.67
2019-01-05T05:19:47.026Z,15.23
2019-01-05T05:22:57.978Z,19.77
2019-01-05T05:25:48.627Z,13.77
2019-01-05T05:28:56.720Z,11.07
2019-01-05T05:31:43.925Z,18.33
2019-01-05T05:34:46.502Z,12.57
2019-01-05T05:37:36.071Z,14.37
2019-01-05T05:40:39.396Z,13.17
2019-01-05T05:43:46.013Z,22.47
2019-01-05T05:46:41.612Z,20.33
2019-01-05T05:49:49.367Z,17.67
2019-01-05T05:53:02.003Z,16.30
2019-01-05T05:55:45.766Z,17.40
2019-01-05T05:59:10.743Z,23.43
2019-01-05T06:02:00.106Z,14.90
2019-01-05T06:05:25.121Z,23.67
2019-01-05T06:08:18.069Z,12.07
2019-01-05T06:11:24.216Z,25.63
2019-01-05T06:14:28.092Z,18.50
2019-01-05T06:17:49.802Z,18.60
2019-01-05T06:20:31.331Z,20.10
2019-01-05T06:23:18.185Z,18.00
2019-01-05T06:26:27.017Z,18.53
2019-01-05T06:29:38.556Z,22.37
2019-01-05T06:33:03.722Z,16.83
2019-01-05T06:36:00.322Z,21.80
2019-01-05T06:39:20.742Z,15.83
2019-01-05T06:42:24.885Z,21.57
2019-01-05T06:45:48.699Z,28.83
2019-01-05T06:48:43.015Z,17.03
2019-01-05T06:51:54.054Z,15.77
2019-01-05T06:54:51.553Z,25.47
2019-01-05T06:57:48.417Z,29.57
2019-01-05T07:00:47.366Z,19.23
2019-01-05T07:03:44.683Z,23.17
2019-01-05T07:06:45.459Z,25.60
2019-01-05T07:10:02.633Z,16.00
2019-01-05T07:13:27.583Z,22.50
2019-01-05T07:16:14.143Z,22.07
2019-01-05T07:19:03.920Z,23.13
2019-01-05T07:22:16.545Z,20.30
2019-01-05T07:25:28.076Z,26.27
2019-01-05T07:28:48.520Z,21.07
2019-01-05T07:31:49.071Z,15.10
2019-01-05T07:34:41.991Z,27.53
2019-01-05T07:37:38.658Z,12.63
2019-01-05T07:40:46.864Z,29.63
2019-01-05T07:43:47.095Z,24.30
2019-01-05T07:46:31.078Z,15.60
2019-01-05T07:49:45.284Z,25.17
2019-01-05T07:52:39.480Z,17.37
2019-01-05T07:55:29.737Z,19.77
2019-01-05T07:58:10.275Z,21.37
2019-01-05T08:01:07.844Z,19.50
2019-01-05T08:04:00.530Z,20.13
2019-01-05T08:07:23.010Z,19.53
2019-01-05T08:10:28.777Z,20.67
2019-01-05T08:13:27.480Z,14.07
2019-01-05T08:16:52.680Z,20.23
2019-01-05T08:22:38.871Z,22.67
2019-01-05T08:25:52.662Z,18.07
2019-01-05T08:28:59.283Z,19.50
2019-01-05T08:32:13.809Z,22.97
2019-01-05T08:35:13.701Z,13.90
2019-01-05T08:38:34.044Z,20.47
2019-01-05T08:41:31.695Z,22.97
2019-01-05T08:44:42.036Z,19.53
2019-01-05T08:47:28.267Z,24.53
2019-01-05T08:50:26.692Z,19.87
2019-01-05T08:53:15.955Z,17.63
2019-01-05T08:56:07.119Z,18.90
2019-01-05T08:58:44.322Z,18.10
2019-01-05T09:01:33.553Z,21.80
2019-01-05T09:04:13.765Z,19.90
2019-01-05T09:06:57.410Z,20.43
2019-01-05T09:09:47.248Z,17.97
2019-01-05T09:12:56.518Z,17.47
2019-01-05T09:16:06.421Z,19.10
2019-01-05T09:19:30.725Z,21.87
2019-01-05T09:22:25.080Z,19.50
2019-01-05T09:25:39.232Z,17.37
2019-01-05T09:28:29.278Z,15.77
2019-01-05T09:31:23.287Z,19.63
2019-01-05T09:34:35.384Z,24.40
2019-01-05T09:37:29.669Z,17.97
2019-01-05T09:40:38.743Z,28.07
2019-01-05T09:43:35.435Z,24.87
2019-01-05T09:46:49.743Z,17.77
2019-01-05T09:49:50.731Z,17.87
2019-01-05T09:52:49.199Z,16.63
2019-01-05T09:55:53.338Z,15.70
2019-01-05T09:58:59.742Z,18.80
2019-01-05T10:02:06.555Z,19.23
2019-01-05T10:05:08.782Z,15.63
2019-01-05T10:08:01.730Z,21.23
2019-01-05T10:10:54.252Z,15.00
2019-01-05T10:14:18.100Z,18.20
2019-01-05T10:17:33.679Z,14.80
2019-01-05T10:20:29.284Z,18.90
2019-01-05T10:23:49.358Z,20.73
2019-01-05T10:26:59.448Z,13.97
2019-01-05T10:30:12.116Z,15.17
2019-01-05T10:32:58.703Z,12.80
2019-01-05T10:36:20.401Z,26.03
2019-01-05T10:39:01.034Z,16.80
2019-01-05T10:41:47.831Z,18.97
2019-01-05T10:44:31.732Z,16.57
2019-01-05T10:47:33.686Z,13.87
2019-01-05T10:50:38.707Z,14.77
2019-01-05T10:53:58.226Z,14.47
2019-01-05T10:56:47.282Z,13.97
2019-01-05T10:59:58.661Z,14.73
2019-01-05T11:02:39.737Z,18.70
2019-01-05T11:05:45.700Z,15.50
2019-01-05T11:08:48.369Z,16.23
2019-01-05T11:11:44.423Z,22.23
2019-01-05T11:15:06.863Z,15.13
2019-01-05T11:18:02.716Z,18.10
2019-01-05T11:21:19.721Z,15.90
2019-01-05T11:24:22.477Z,15.67
2019-01-05T11:27:27.714Z,13.80
2019-01-05T11:30:28.440Z,17.30
2019-01-05T11:33:16.268Z,14.77
2019-01-05T11:36:06.286Z,9.23
2019-01-05T11:38:44.175Z,16.90
2019-01-05T11:41:49.706Z,15.10
2019-01-05T11:44:27.902Z,10.47
2019-01-05T11:47:24.874Z,15.40
2019-01-05T11:50:22.342Z,17.30
2019-01-05T11:53:03.717Z,16.13
2019-01-05T11:56:11.306Z,15.00
2019-01-05T11:58:55.561Z,12.63
2019-01-05T12:01:49.023Z,12.07
2019-01-05T12:05:01.614Z,13.67
2019-01-05T12:08:13.462Z,12.33
2019-01-05T12:11:22.596Z,12.20
2019-01-05T12:14:23.019Z,13.20
2019-01-05T12:17:29.879Z,10.50
2019-01-05T12:20:41.986Z,8.90
2019-01-05T12:23:56.289Z,7.37
2019-01-05T12:26:52.005Z,15.57
2019-01-05T12:30:05.093Z,11.40
2019-01-05T12:33:25.634Z,13.53
2019-01-05T12:36:50.831Z,8.67
2019-01-05T12:40:05.807Z,11.37
2019-01-05T12:43:06.166Z,8.53
2019-01-05T12:45:55.280Z,9.33
2019-01-05T12:48:50.629Z,9.73
2019-01-05T12:51:47.878Z,8.43
2019-01-05T12:55:04.032Z,13.50
2019-01-05T12:57:47.869Z,10.27
2019-01-05T13:00:37.680Z,10.13
2019-01-05T13:03:47.548Z,14.80
2019-01-05T13:07:14.412Z,12.63
2019-01-05T13:10:12.426Z,7.50
2019-01-05T13:13:31.030Z,11.53
2019-01-05T13:16:44.925Z,6.67
2019-01-05T13:19:42.867Z,11.03
2019-01-05T13:22:37.615Z,12.47
2019-01-05T13:25:38.455Z,11.93
2019-01-05T13:28:34.608Z,13.30
2019-01-05T13:31:51.620Z,15.87
2019-01-05T13:34:45.967Z,10.23
2019-01-05T13:37:49.158Z,13.73
2019-01-05T13:40:38.964Z,11.43
2019-01-05T13:43:49.143Z,8.97
2019-01-05T13:46:50.978Z,13.27
2019-01-05T13:49:37.739Z,10.33
2019-01-05T13:52:21.132Z,9.53
2019-01-05T13:55:00.438Z,9.50
2019-01-05T13:57:48.563Z,13.53
2019-01-05T14:00:23.188Z,16.20
2019-01-05T14:02:55.764Z,8.47
2019-01-05T14:05:27.623Z,10.57
2019-01-05T14:08:02.390Z,13.30
2019-01-05T14:10:39.959Z,10.83
2019-01-05T14:13:15.129Z,6.90
2019-01-05T14:15:46.972Z,9.10
2019-01-05T14:18:35.349Z,9.63
2019-01-05T14:21:07.519Z,15.90
2019-01-05T14:23:55.709Z,10.87
2019-01-05T14:26:34.051Z,8.30
2019-01-05T14:29:12.361Z,8.57
2019-01-05T14:32:03.852Z,13.33
2019-01-05T14:34:58.652Z,8.10
2019-01-05T14:37:30.262Z,9.50
2019-01-05T14:40:02.087Z,13.73
2019-01-05T14:42:40.880Z,10.07
2019-01-05T14:45:16.515Z,11.50
2019-01-05T14:47:52.817Z,11.30
2019-01-05T14:50:34.230Z,13.43
2019-01-05T14:53:21.397Z,19.13
2019-01-05T14:56:08.873Z,11.37
2019-01-05T14:58:57.292Z,14.00
2019-01-05T15:01:29.342Z,10.90
2019-01-05T15:04:01.082Z,16.40
2019-01-05T15:06:48.812Z,12.67
2019-01-05T15:09:35.303Z,7.17
2019-01-05T15:12:10.262Z,14.27
2019-01-05T15:14:54.472Z,9.87
2019-01-05T15:17:32.451Z,14.80
2019-01-05T15:20:06.811Z,10.23
2019-01-05T15:22:48.544Z,12.97
2019-01-05T15:25:26.339Z,8.97
2019-01-05T15:28:09.703Z,13.00
2019-01-05T15:30:56.839Z,9.23
2019-01-05T15:33:31.478Z,10.57
2019-01-05T15:36:03.394Z,14.23
2019-01-05T15:38:44.476Z,13.97
2019-01-05T15:41:32.455Z,9.67
2019-01-05T15:44:23.023Z,12.10
2019-01-05T15:46:58.011Z,12.23
2019-01-05T15:49:29.841Z,8.83
2019-01-05T15:52:01.732Z,11.87
2019-01-05T15:54:39.679Z,56.63
2019-01-05T15:57:27.003Z,86.17
2019-01-05T15:59:59.706Z,76.83
2019-01-05T16:02:41.742Z,41.53
2019-01-05T16:05:30.682Z,17.97
2019-01-05T16:08:17.903Z,10.07
2019-01-05T16:10:52.554Z,12.97
2019-01-05T16:13:40.913Z,12.97
2019-01-05T16:16:15.664Z,12.10
2019-01-05T16:19:00.866Z,10.70
2019-01-05T16:21:36.108Z,8.60
2019-01-05T16:24:08.001Z,12.07
2019-01-05T16:26:59.150Z,9.17
2019-01-05T16:29:42.801Z,13.07
2019-01-05T16:32:20.785Z,10.10
2019-01-05T16:35:08.920Z,10.13
2019-01-05T16:37:52.565Z,9.70
2019-01-05T16:40:30.834Z,6.63
2019-01-05T16:43:19.428Z,9.83
2019-01-05T16:46:00.348Z,7.00
2019-01-05T16:48:50.517Z,6.90
2019-01-05T16:51:25.402Z,5.50
2019-01-05T16:54:13.773Z,8.87
2019-01-05T16:56:45.998Z,12.20
2019-01-05T16:59:34.370Z,7.60
2019-01-05T17:02:06.269Z,6.40
2019-01-05T17:04:54.975Z,5.23
2019-01-05T17:07:27.018Z,7.67
2019-01-05T17:10:04.772Z,7.43
2019-01-05T17:12:39.412Z,8.07
2019-01-05T17:15:27.785Z,9.30
2019-01-05T17:18:08.870Z,18.73
2019-01-05T17:20:40.957Z,15.30
2019-01-05T17:23:18.525Z,11.03
2019-01-05T17:25:54.049Z,10.43
2019-01-05T17:28:42.998Z,7.47
2019-01-05T17:31:18.455Z,12.10
2019-01-05T17:34:07.444Z,11.87
2019-01-05T17:36:55.950Z,12.77
2019-01-05T17:39:27.799Z,13.77
2019-01-05T17:42:03.305Z,11.77
2019-01-05T17:44:50.825Z,12.27
2019-01-05T17:47:26.101Z,9.87
2019-01-05T17:50:07.215Z,9.50
2019-01-05T17:52:39.633Z,8.63
2019-01-05T17:55:12.065Z,7.60
2019-01-05T17:57:53.169Z,5.83
2019-01-05T18:00:25.222Z,8.17
2019-01-05T18:03:03.017Z,7.40
2019-01-05T18:05:44.115Z,7.20
2019-01-05T18:08:24.542Z,6.33
2019-01-05T18:11:02.888Z,6.47
2019-01-05T18:13:47.034Z,6.53
2019-01-05T18:16:22.063Z,4.73
2019-01-05T18:19:12.345Z,9.03
2019-01-05T18:21:49.651Z,8.80
2019-01-05T18:24:33.489Z,11.43
2019-01-05T18:27:11.197Z,9.20
2019-01-05T18:29:43.239Z,9.53
2019-01-05T18:32:21.096Z,6.50
2019-01-05T18:35:09.589Z,7.70
2019-01-05T18:37:57.168Z,11.93
2019-01-05T18:40:41.260Z,8.17
2019-01-05T18:43:25.110Z,6.33
2019-01-05T18:46:03.192Z,9.20
2019-01-05T18:48:40.980Z,13.50
2019-01-05T18:51:30.571Z,8.60
2019-01-05T18:54:05.304Z,12.00
2019-01-05T18:56:49.294Z,13.97
2019-01-05T18:59:26.805Z,12.27
2019-01-05T19:02:14.118Z,11.47
2019-01-05T19:05:02.078Z,12.83
2019-01-05T19:07:48.956Z,8.63
2019-01-05T19:10:23.715Z,8.97
2019-01-05T19:13:12.549Z,11.87
2019-01-05T19:16:00.054Z,12.97
2019-01-05T19:18:32.369Z,13.53
2019-01-05T19:21:10.647Z,11.80
2019-01-05T19:23:45.655Z,9.00
2019-01-05T19:26:17.494Z,10.97
2019-01-05T19:28:58.222Z,9.40
2019-01-05T19:31:29.819Z,8.57
2019-01-05T19:34:03.228Z,11.13
2019-01-05T19:36:52.135Z,7.93
2019-01-05T19:39:31.765Z,12.27
2019-01-05T19:42:03.937Z,14.03
2019-01-05T19:44:52.317Z,9.13
2019-01-05T19:47:33.568Z,8.17
2019-01-05T19:50:22.635Z,11.97
2019-01-05T19:53:12.721Z,9.27
2019-01-05T19:56:01.306Z,12.30
2019-01-05T19:58:38.185Z,8.57
2019-01-05T20:01:12.492Z,11.87
2019-01-05T20:03:56.510Z,13.87
2019-01-05T20:06:45.199Z,11.83
2019-01-05T20:09:31.289Z,10.37
2019-01-05T20:12:04.380Z,12.40
2019-01-05T20:14:39.563Z,12.57
2019-01-05T20:17:31.295Z,11.63
2019-01-05T20:20:06.059Z,10.70
2019-01-05T20:22:40.821Z,11.37
2019-01-05T20:25:22.033Z,10.87
2019-01-05T20:28:00.540Z,14.23
2019-01-05T20:30:38.844Z,13.00
2019-01-05T20:33:27.609Z,11.27
2019-01-05T20:36:02.490Z,10.23
2019-01-05T20:38:35.224Z,11.07
2019-01-05T20:41:11.362Z,11.10
2019-01-05T20:43:43.477Z,13.10
2019-01-05T20:46:33.252Z,16.10
2019-01-05T20:49:08.774Z,12.43
2019-01-05T20:51:44.031Z,16.70
2019-01-05T20:54:28.490Z,11.83
2019-01-05T20:57:08.411Z,14.50
2019-01-05T20:59:41.070Z,16.97
2019-01-05T21:02:13.545Z,13.17
2019-01-05T21:04:49.151Z,13.90
2019-01-05T21:07:37.522Z,17.67
2019-01-05T21:10:29.523Z,16.00
2019-01-05T21:13:19.933Z,18.97
2019-01-05T21:16:08.532Z,20.30
2019-01-05T21:18:56.391Z,18.17
2019-01-05T21:21:31.537Z,19.67
2019-01-05T21:24:22.438Z,16.43
2019-01-05T21:26:54.444Z,23.30
2019-01-05T21:29:34.046Z,22.47
2019-01-05T21:32:13.119Z,24.70
2019-01-05T21:34:45.979Z,23.33
2019-01-05T21:37:30.508Z,21.62
2019-01-05T21:40:12.437Z,21.27
2019-01-05T21:42:51.351Z,20.93
2019-01-05T21:45:23.655Z,20.03
2019-01-05T21:48:01.496Z,18.73
2019-01-05T21:50:36.669Z,18.70
2019-01-05T21:53:24.230Z,20.13
2019-01-05T21:56:11.882Z,18.20
2019-01-05T21:59:00.162Z,21.07
2019-01-05T22:01:32.148Z,20.10
2019-01-05T22:04:13.715Z,23.53
2019-01-05T22:06:55.052Z,16.77
2019-01-05T22:09:42.814Z,16.63
2019-01-05T22:12:17.847Z,17.32
2019-01-05T22:14:49.754Z,21.27
2019-01-05T22:17:24.452Z,15.97
2019-01-05T22:20:12.951Z,16.10
2019-01-05T22:22:48.432Z,16.77
2019-01-05T22:25:37.281Z,18.30
2019-01-05T22:28:09.122Z,14.53
2019-01-05T22:30:57.471Z,19.75
2019-01-05T22:33:34.900Z,21.75
2019-01-05T22:36:06.845Z,14.03
2019-01-05T22:38:56.609Z,18.77
2019-01-05T22:41:37.351Z,19.23
2019-01-05T22:44:08.936Z,22.02
2019-01-05T22:46:55.748Z,21.37
2019-01-05T22:49:27.348Z,19.12
2019-01-05T22:52:14.636Z,17.10
2019-01-05T22:54:55.398Z,19.12
2019-01-05T22:57:45.698Z,20.23
2019-01-05T23:00:20.575Z,17.20
2019-01-05T23:02:59.144Z,17.90
2019-01-05T23:05:37.775Z,21.73
2019-01-05T23:08:26.798Z,23.00
2019-01-05T23:11:16.954Z,17.50
2019-01-05T23:13:56.011Z,15.43
2019-01-05T23:16:37.786Z,21.00
2019-01-05T23:19:22.044Z,17.70
2019-01-05T23:22:09.429Z,21.07
2019-01-05T23:24:41.980Z,19.62
2019-01-05T23:27:19.818Z,17.73
2019-01-05T23:30:10.198Z,19.75
2019-01-05T23:32:51.169Z,19.60
2019-01-05T23:35:26.148Z,19.92
2019-01-05T23:38:10.223Z,21.65
2019-01-05T23:40:54.650Z,21.70
2019-01-05T23:43:42.745Z,19.35
2019-01-05T23:46:17.693Z,16.70
2019-01-05T23:48:49.706Z,19.20
2019-01-05T23:51:24.662Z,20.48
2019-01-05T23:54:03.603Z,16.70
2019-01-05T23:56:38.784Z,15.88
2019-01-05T23:59:27.057Z,15.50
